createdAt,value
2019-02-11T00:00:35.530Z,2.20
2019-02-11T00:03:09.565Z,2.30
2019-02-11T00:05:43.182Z,2.40
2019-02-11T00:08:44.459Z,2.40
2019-02-11T00:11:18.137Z,2.50
2019-02-11T00:13:51.782Z,2.60
2019-02-11T00:16:25.718Z,2.80
2019-02-11T00:18:59.412Z,2.90
2019-02-11T00:21:33.021Z,3.00
2019-02-11T00:24:06.640Z,3.10
2019-02-11T00:26:40.217Z,3.20
2019-02-11T00:29:13.842Z,3.30
2019-02-11T00:31:59.690Z,3.40
2019-02-11T00:34:33.289Z,3.60
2019-02-11T00:37:06.875Z,3.70
2019-02-11T00:39:43.584Z,3.80
2019-02-11T00:42:17.632Z,3.90
2019-02-11T00:44:51.359Z,4.00
2019-02-11T00:47:32.110Z,4.10
2019-02-11T00:50:09.139Z,4.10
2019-02-11T00:52:42.832Z,4.20
2019-02-11T00:55:16.487Z,4.20
2019-02-11T00:57:50.131Z,4.30
2019-02-11T01:00:32.932Z,4.30
2019-02-11T01:03:06.620Z,4.40
2019-02-11T01:05:43.318Z,4.40
2019-02-11T01:08:16.882Z,4.40
2019-02-11T01:10:51.527Z,4.40
2019-02-11T01:13:27.902Z,4.40
2019-02-11T01:16:00.759Z,4.40
2019-02-11T01:18:34.445Z,4.40
2019-02-11T01:21:08.027Z,4.40
2019-02-11T01:23:41.632Z,4.30
2019-02-11T01:26:15.229Z,4.30
2019-02-11T01:28:48.871Z,4.30
2019-02-11T01:31:22.468Z,4.20
2019-02-11T01:33:56.083Z,4.20
2019-02-11T01:36:34.313Z,4.20
2019-02-11T01:39:08.007Z,4.20
2019-02-11T01:41:54.054Z,4.10
2019-02-11T01:44:27.739Z,4.10
2019-02-11T01:47:01.362Z,4.10
2019-02-11T01:49:35.055Z,4.10
2019-02-11T01:52:08.743Z,4.10
2019-02-11T01:54:42.367Z,4.10
2019-02-11T01:57:15.984Z,4.00
2019-02-11T01:59:49.602Z,4.00
2019-02-11T02:02:23.191Z,3.90
2019-02-11T02:04:59.874Z,4.00
2019-02-11T02:07:33.470Z,4.00
2019-02-11T02:10:25.339Z,4.00
2019-02-11T02:12:58.950Z,4.00
2019-02-11T02:15:32.555Z,4.00
2019-02-11T02:18:06.242Z,4.00
2019-02-11T02:20:46.004Z,3.90
2019-02-11T02:23:19.631Z,4.00
2019-02-11T02:25:53.207Z,4.00
2019-02-11T02:28:29.946Z,4.00
2019-02-11T02:31:03.590Z,4.00
2019-02-11T02:33:37.638Z,4.00
2019-02-11T02:36:11.215Z,4.00
2019-02-11T02:38:46.774Z,4.10
2019-02-11T02:41:20.357Z,4.10
2019-02-11T02:43:55.877Z,4.20
2019-02-11T02:46:29.362Z,4.10
2019-02-11T02:49:05.991Z,4.10
2019-02-11T02:51:39.745Z,4.10
2019-02-11T02:54:13.438Z,4.10
2019-02-11T02:56:47.025Z,4.10
2019-02-11T02:59:20.639Z,4.10
2019-02-11T03:01:54.233Z,4.10
2019-02-11T03:04:27.847Z,4.10
2019-02-11T03:07:04.601Z,4.10
2019-02-11T03:09:38.298Z,4.20
2019-02-11T03:12:11.944Z,4.20
2019-02-11T03:14:45.695Z,4.20
2019-02-11T03:17:19.323Z,4.30
2019-02-11T03:19:52.939Z,4.40
2019-02-11T03:22:26.588Z,4.40
2019-02-11T03:25:00.280Z,4.50
2019-02-11T03:27:33.932Z,4.60
2019-02-11T03:30:09.660Z,4.60
2019-02-11T03:32:43.290Z,4.60
2019-02-11T03:35:16.914Z,4.70
2019-02-11T03:37:50.496Z,4.70
2019-02-11T03:40:24.077Z,4.70
2019-02-11T03:42:57.769Z,4.70
2019-02-11T03:45:31.809Z,4.70
2019-02-11T03:48:05.508Z,4.70
2019-02-11T03:50:39.097Z,4.70
2019-02-11T03:53:12.783Z,4.80
2019-02-11T03:55:46.743Z,4.80
2019-02-11T03:58:20.419Z,4.80
2019-02-11T04:00:54.172Z,4.80
2019-02-11T04:03:27.838Z,4.80
2019-02-11T04:06:01.533Z,4.80
2019-02-11T04:08:35.222Z,4.90
2019-02-11T04:11:08.924Z,4.90
2019-02-11T04:13:42.548Z,4.90
2019-02-11T04:16:28.309Z,5.00
2019-02-11T04:19:01.924Z,5.00
2019-02-11T04:21:35.513Z,5.00
2019-02-11T04:24:09.132Z,5.00
2019-02-11T04:26:44.732Z,5.00
2019-02-11T04:29:18.359Z,5.00
2019-02-11T04:31:52.004Z,5.00
2019-02-11T04:34:25.583Z,5.00
2019-02-11T04:36:59.273Z,5.10
2019-02-11T04:39:32.888Z,5.10
2019-02-11T04:42:06.644Z,5.10
2019-02-11T04:44:47.452Z,5.10
2019-02-11T04:47:21.085Z,5.20
2019-02-11T04:49:54.697Z,5.10
2019-02-11T04:52:28.319Z,5.10
2019-02-11T04:55:06.513Z,5.10
2019-02-11T04:57:55.393Z,5.10
2019-02-11T05:00:29.123Z,5.10
2019-02-11T05:03:02.822Z,5.00
2019-02-11T05:05:36.489Z,5.00
2019-02-11T05:08:22.320Z,5.10
2019-02-11T05:10:55.968Z,5.00
2019-02-11T05:13:29.608Z,5.10
2019-02-11T05:16:03.199Z,5.00
2019-02-11T05:18:46.080Z,5.10
2019-02-11T05:21:19.769Z,5.10
2019-02-11T05:23:53.451Z,5.10
2019-02-11T05:26:27.199Z,5.10
2019-02-11T05:29:00.782Z,5.10
2019-02-11T05:31:34.695Z,5.10
2019-02-11T05:34:08.710Z,5.10
2019-02-11T05:36:42.323Z,5.10
2019-02-11T05:39:28.448Z,5.10
2019-02-11T05:42:03.148Z,5.20
2019-02-11T05:44:37.035Z,5.10
2019-02-11T05:47:10.652Z,5.20
2019-02-11T05:49:56.271Z,5.20
2019-02-11T05:52:29.863Z,5.20
2019-02-11T05:55:09.711Z,5.20
2019-02-11T05:57:43.292Z,5.20
2019-02-11T06:00:31.978Z,5.10
2019-02-11T06:03:05.563Z,5.10
2019-02-11T06:05:52.499Z,5.10
2019-02-11T06:08:26.106Z,5.00
2019-02-11T06:11:00.070Z,5.10
2019-02-11T06:13:33.653Z,5.00
2019-02-11T06:16:07.273Z,5.00
2019-02-11T06:18:48.379Z,5.00
2019-02-11T06:21:22.036Z,5.00
2019-02-11T06:23:55.631Z,5.10
2019-02-11T06:26:33.291Z,5.00
2019-02-11T06:29:06.881Z,5.10
2019-02-11T06:31:40.499Z,5.00
2019-02-11T06:34:18.634Z,5.10
2019-02-11T06:37:00.316Z,5.00
2019-02-11T06:39:37.771Z,5.00
2019-02-11T06:42:11.482Z,5.00
2019-02-11T06:44:45.163Z,5.00
2019-02-11T06:47:19.953Z,4.90
2019-02-11T06:49:53.585Z,5.00
2019-02-11T06:52:30.295Z,5.00
2019-02-11T06:55:06.051Z,5.00
2019-02-11T06:57:51.834Z,5.00
2019-02-11T07:00:25.415Z,5.00
2019-02-11T07:02:59.946Z,5.00
2019-02-11T07:05:33.628Z,5.00
2019-02-11T07:08:08.067Z,5.00
2019-02-11T07:10:41.805Z,5.00
2019-02-11T07:13:15.719Z,5.00
2019-02-11T07:15:49.344Z,5.10
2019-02-11T07:18:23.035Z,5.10
2019-02-11T07:20:56.726Z,5.20
2019-02-11T07:23:30.339Z,5.20
2019-02-11T07:26:04.348Z,5.20
2019-02-11T07:28:38.015Z,5.20
2019-02-11T07:31:11.627Z,5.30
2019-02-11T07:33:45.316Z,5.30
2019-02-11T07:36:23.711Z,5.30
2019-02-11T07:38:57.335Z,5.40
2019-02-11T07:41:32.666Z,5.30
2019-02-11T07:44:17.178Z,5.30
2019-02-11T07:46:50.866Z,5.20
2019-02-11T07:49:24.542Z,5.30
2019-02-11T07:51:58.122Z,5.30
2019-02-11T07:54:34.755Z,5.30
2019-02-11T07:57:08.449Z,5.20
2019-02-11T07:59:51.922Z,5.20
2019-02-11T08:02:25.606Z,5.20
2019-02-11T08:05:08.401Z,5.20
2019-02-11T08:07:42.018Z,5.10
2019-02-11T08:10:15.629Z,5.20
2019-02-11T08:12:49.238Z,5.20
2019-02-11T08:15:38.784Z,5.10
2019-02-11T08:18:12.585Z,5.20
2019-02-11T08:20:46.274Z,5.20
2019-02-11T08:23:19.890Z,5.20
2019-02-11T08:25:53.578Z,5.20
2019-02-11T08:28:27.163Z,5.20
2019-02-11T08:31:00.867Z,5.20
2019-02-11T08:33:34.812Z,5.10
2019-02-11T08:36:08.704Z,5.10
2019-02-11T08:38:42.328Z,5.10
2019-02-11T08:41:15.910Z,5.10
2019-02-11T08:43:49.554Z,5.10
2019-02-11T08:46:23.202Z,5.10
2019-02-11T08:48:57.245Z,5.10
2019-02-11T08:51:56.457Z,5.10
2019-02-11T08:54:30.238Z,5.20
2019-02-11T08:57:03.909Z,5.20
2019-02-11T08:59:37.876Z,5.10
2019-02-11T09:02:11.637Z,5.10
2019-02-11T09:04:45.319Z,5.10
2019-02-11T09:07:19.005Z,4.50
2019-02-11T09:09:55.807Z,4.10
2019-02-11T09:12:29.544Z,4.10
2019-02-11T09:15:03.197Z,4.30
2019-02-11T09:17:46.248Z,4.40
2019-02-11T09:20:26.678Z,4.40
2019-02-11T09:23:00.287Z,4.40
2019-02-11T09:25:33.971Z,4.40
2019-02-11T09:28:37.941Z,4.40
2019-02-11T09:31:14.664Z,4.50
2019-02-11T09:33:48.252Z,4.50
2019-02-11T09:36:21.946Z,4.60
2019-02-11T09:38:58.555Z,4.60
2019-02-11T09:41:32.362Z,4.50
2019-02-11T09:44:08.921Z,4.60
2019-02-11T09:46:42.536Z,4.60
2019-02-11T09:49:16.186Z,4.70
2019-02-11T09:51:50.043Z,4.80
2019-02-11T09:54:23.645Z,4.90
2019-02-11T09:56:57.324Z,4.90
2019-02-11T09:59:30.937Z,5.00
2019-02-11T10:02:10.726Z,5.00
2019-02-11T10:04:44.366Z,5.00
2019-02-11T10:07:39.132Z,5.30
2019-02-11T10:10:12.879Z,5.50
2019-02-11T10:12:46.637Z,5.30
2019-02-11T10:15:20.315Z,5.40
2019-02-11T10:17:54.068Z,5.40
2019-02-11T10:20:28.158Z,5.40
2019-02-11T10:23:03.828Z,5.50
2019-02-11T10:25:37.515Z,5.60
2019-02-11T10:28:13.643Z,5.70
2019-02-11T10:30:59.854Z,5.60
2019-02-11T10:33:39.580Z,5.50
2019-02-11T10:36:13.343Z,5.60
2019-02-11T10:38:46.988Z,5.60
2019-02-11T10:41:20.759Z,5.60
2019-02-11T10:43:54.416Z,5.60
2019-02-11T10:46:28.431Z,5.60
2019-02-11T10:49:02.008Z,5.60
2019-02-11T10:51:35.939Z,5.70
2019-02-11T10:54:09.516Z,5.70
2019-02-11T10:56:48.999Z,5.80
2019-02-11T10:59:22.679Z,6.00
2019-02-11T11:01:56.366Z,6.00
2019-02-11T11:04:33.964Z,6.60
2019-02-11T11:07:07.702Z,6.90
2019-02-11T11:09:44.671Z,7.10
2019-02-11T11:12:24.664Z,7.30
2019-02-11T11:15:05.032Z,7.80
2019-02-11T11:17:38.962Z,7.50
2019-02-11T11:20:17.416Z,7.10
2019-02-11T11:22:54.065Z,7.10
2019-02-11T11:25:27.719Z,7.60
2019-02-11T11:28:01.440Z,7.40
2019-02-11T11:30:36.162Z,7.10
2019-02-11T11:33:10.731Z,7.20
2019-02-11T11:35:44.322Z,7.50
2019-02-11T11:38:19.103Z,7.00
2019-02-11T11:40:52.689Z,6.90
2019-02-11T11:43:26.315Z,6.60
2019-02-11T11:45:59.967Z,6.50
2019-02-11T11:48:33.580Z,6.50
2019-02-11T11:51:09.122Z,6.40
2019-02-11T11:53:42.767Z,6.30
2019-02-11T11:56:16.381Z,6.20
2019-02-11T11:58:59.376Z,6.10
2019-02-11T12:01:33.121Z,6.10
2019-02-11T12:04:07.158Z,6.10
2019-02-11T12:06:40.749Z,6.00
2019-02-11T12:09:14.459Z,6.00
2019-02-11T12:11:48.154Z,5.90
2019-02-11T12:14:21.905Z,5.90
2019-02-11T12:17:02.289Z,5.90
2019-02-11T12:19:31.887Z,5.90
2019-02-11T12:22:12.918Z,5.90
2019-02-11T12:24:45.512Z,5.80
2019-02-11T12:27:19.134Z,5.90
2019-02-11T12:29:59.834Z,6.00
2019-02-11T12:32:33.531Z,6.10
2019-02-11T12:35:12.375Z,6.10
2019-02-11T12:37:46.158Z,6.10
2019-02-11T12:40:24.544Z,6.10
2019-02-11T12:42:58.147Z,6.10
2019-02-11T12:45:31.775Z,6.10
2019-02-11T12:48:13.729Z,6.20
2019-02-11T12:50:47.353Z,6.20
2019-02-11T12:53:26.662Z,6.20
2019-02-11T12:56:02.481Z,6.40
2019-02-11T12:58:35.569Z,6.40
2019-02-11T13:01:16.375Z,6.30
2019-02-11T13:03:49.957Z,6.10
2019-02-11T13:06:23.673Z,6.10
2019-02-11T13:08:57.303Z,6.20
2019-02-11T13:11:31.081Z,6.60
2019-02-11T13:14:07.888Z,7.00
2019-02-11T13:16:41.601Z,7.10
2019-02-11T13:19:15.291Z,7.30
2019-02-11T13:21:52.055Z,7.00
2019-02-11T13:24:25.653Z,6.70
2019-02-11T13:26:59.408Z,6.70
2019-02-11T13:29:33.064Z,6.70
2019-02-11T13:32:10.352Z,6.70
2019-02-11T13:34:42.067Z,6.60
2019-02-11T13:37:16.622Z,6.60
2019-02-11T13:39:50.339Z,6.50
2019-02-11T13:42:30.122Z,6.50
2019-02-11T13:45:05.444Z,6.30
2019-02-11T13:47:54.694Z,6.20
2019-02-11T13:50:25.964Z,6.10
2019-02-11T13:52:59.718Z,6.00
2019-02-11T13:55:33.583Z,5.90
2019-02-11T13:58:07.849Z,5.90
2019-02-11T14:00:51.298Z,5.80
2019-02-11T14:03:25.056Z,6.30
2019-02-11T14:05:58.716Z,5.80
2019-02-11T14:08:38.582Z,5.70
2019-02-11T14:11:12.250Z,5.60
2019-02-11T14:14:01.456Z,5.60
2019-02-11T14:16:24.583Z,5.60
2019-02-11T14:18:58.271Z,5.60
2019-02-11T14:21:41.860Z,5.50
2019-02-11T14:24:17.016Z,5.50
2019-02-11T14:27:12.402Z,5.50
2019-02-11T14:29:50.382Z,5.50
2019-02-11T14:32:27.299Z,5.40
2019-02-11T14:35:02.353Z,5.40
2019-02-11T14:37:39.109Z,5.30
2019-02-11T14:40:13.376Z,5.40
2019-02-11T14:42:48.005Z,5.30
2019-02-11T14:45:21.848Z,5.30
2019-02-11T14:47:55.566Z,5.30
2019-02-11T14:50:38.292Z,5.30
2019-02-11T14:53:11.912Z,5.20
2019-02-11T14:55:45.538Z,5.20
2019-02-11T14:58:29.532Z,5.20
2019-02-11T15:01:03.152Z,5.10
2019-02-11T15:03:36.836Z,5.10
2019-02-11T15:06:10.523Z,5.10
2019-02-11T15:08:44.194Z,5.00
2019-02-11T15:11:17.781Z,4.90
2019-02-11T15:14:00.668Z,4.90
2019-02-11T15:16:34.316Z,4.80
2019-02-11T15:19:14.124Z,4.70
2019-02-11T15:21:47.815Z,4.70
2019-02-11T15:24:27.683Z,4.70
2019-02-11T15:27:01.299Z,4.60
2019-02-11T15:29:34.892Z,4.60
2019-02-11T15:32:08.515Z,4.60
2019-02-11T15:34:54.408Z,4.50
2019-02-11T15:37:28.114Z,4.50
2019-02-11T15:40:01.699Z,4.40
2019-02-11T15:42:37.322Z,4.40
2019-02-11T15:45:23.923Z,4.40
2019-02-11T15:47:57.539Z,4.40
2019-02-11T15:50:31.266Z,4.30
2019-02-11T15:53:10.881Z,4.20
2019-02-11T15:55:50.737Z,4.10
2019-02-11T15:58:24.411Z,4.00
2019-02-11T16:01:00.032Z,4.00
2019-02-11T16:03:33.654Z,3.90
2019-02-11T16:06:13.204Z,3.90
2019-02-11T16:08:48.782Z,3.90
2019-02-11T16:11:22.406Z,3.80
2019-02-11T16:13:56.064Z,3.80
2019-02-11T16:16:29.670Z,3.80
2019-02-11T16:19:14.257Z,3.70
2019-02-11T16:21:47.955Z,3.60
2019-02-11T16:24:23.587Z,3.60
2019-02-11T16:27:09.338Z,3.50
2019-02-11T16:29:42.934Z,3.50
2019-02-11T16:32:16.566Z,3.40
2019-02-11T16:34:53.894Z,3.40
2019-02-11T16:37:27.585Z,3.40
2019-02-11T16:40:01.215Z,3.30
2019-02-11T16:42:34.899Z,3.30
2019-02-11T16:45:10.575Z,3.30
2019-02-11T16:47:44.152Z,3.20
2019-02-11T16:50:24.144Z,3.20
2019-02-11T16:52:57.721Z,3.10
2019-02-11T16:55:31.418Z,3.10
2019-02-11T16:58:05.153Z,3.00
2019-02-11T17:00:44.666Z,3.00
2019-02-11T17:03:32.265Z,3.00
2019-02-11T17:06:05.938Z,2.90
2019-02-11T17:08:43.665Z,2.90
2019-02-11T17:11:19.693Z,3.00
2019-02-11T17:13:53.586Z,3.10
2019-02-11T17:16:27.341Z,3.20
2019-02-11T17:19:08.890Z,3.20
2019-02-11T17:21:44.608Z,3.30
2019-02-11T17:24:18.222Z,3.30
2019-02-11T17:26:55.296Z,3.40
2019-02-11T17:29:33.347Z,3.30
2019-02-11T17:32:10.532Z,3.30
2019-02-11T17:34:44.514Z,3.40
2019-02-11T17:37:18.106Z,3.40
2019-02-11T17:39:54.244Z,3.30
2019-02-11T17:42:27.930Z,3.20
2019-02-11T17:45:06.960Z,3.20
2019-02-11T17:47:40.643Z,3.20
2019-02-11T17:50:14.466Z,3.20
2019-02-11T17:53:09.521Z,3.20
2019-02-11T17:55:43.235Z,3.30
2019-02-11T17:58:21.468Z,3.40
2019-02-11T18:00:56.749Z,3.40
2019-02-11T18:03:48.595Z,3.50
2019-02-11T18:06:22.259Z,3.70
2019-02-11T18:09:19.992Z,3.70
2019-02-11T18:11:53.664Z,3.70
2019-02-11T18:14:35.385Z,3.80
2019-02-11T18:17:09.003Z,3.80
2019-02-11T18:20:07.130Z,3.70
2019-02-11T18:22:40.812Z,3.60
2019-02-11T18:25:14.540Z,3.60
2019-02-11T18:28:03.259Z,3.60
2019-02-11T18:30:49.276Z,3.60
2019-02-11T18:33:53.327Z,3.50
2019-02-11T18:36:39.172Z,3.40
2019-02-11T18:39:12.933Z,3.40
2019-02-11T18:41:46.578Z,3.30
2019-02-11T18:44:32.113Z,3.30
2019-02-11T18:50:14.800Z,3.40
2019-02-11T18:52:54.473Z,3.50
2019-02-11T18:55:29.713Z,3.40
2019-02-11T18:58:06.881Z,3.40
2019-02-11T19:00:40.570Z,3.40
2019-02-11T19:03:14.240Z,3.30
2019-02-11T19:05:47.860Z,3.30
2019-02-11T19:08:21.566Z,3.20
2019-02-11T19:10:55.226Z,3.30
2019-02-11T19:13:30.848Z,3.20
2019-02-11T19:16:04.500Z,3.20
2019-02-11T19:18:38.132Z,3.20
2019-02-11T19:21:11.811Z,3.20
2019-02-11T19:23:51.484Z,3.10
2019-02-11T19:26:28.835Z,3.00
2019-02-11T19:29:02.420Z,3.10
2019-02-11T19:31:55.435Z,3.10
2019-02-11T19:34:29.018Z,3.20
2019-02-11T19:37:02.654Z,3.10
2019-02-11T19:39:45.391Z,3.10
2019-02-11T19:42:19.085Z,3.10
2019-02-11T19:45:00.728Z,3.10
2019-02-11T19:47:34.764Z,3.10
2019-02-11T19:50:11.313Z,3.10
2019-02-11T19:52:45.149Z,3.00
2019-02-11T19:55:18.837Z,3.00
2019-02-11T19:57:52.451Z,3.10
2019-02-11T20:00:29.779Z,3.00
2019-02-11T20:03:03.463Z,3.00
2019-02-11T20:05:48.575Z,3.10
2019-02-11T20:08:22.279Z,3.10
2019-02-11T20:10:59.104Z,3.10
2019-02-11T20:13:37.442Z,3.00
2019-02-11T20:16:14.789Z,3.00
2019-02-11T20:18:51.647Z,2.90
2019-02-11T20:21:25.346Z,2.90
2019-02-11T20:23:59.059Z,2.90
2019-02-11T20:26:32.676Z,2.90
2019-02-11T20:29:06.331Z,2.90
2019-02-11T20:31:43.084Z,2.90
2019-02-11T20:34:16.738Z,2.90
2019-02-11T20:37:02.993Z,2.90
2019-02-11T20:39:42.126Z,2.80
2019-02-11T20:42:15.875Z,2.80
2019-02-11T20:44:51.531Z,2.70
2019-02-11T20:47:25.197Z,2.70
2019-02-11T20:50:08.861Z,2.70
2019-02-11T20:52:41.555Z,2.70
2019-02-11T20:55:15.526Z,2.70
2019-02-11T20:57:52.139Z,2.70
2019-02-11T21:00:26.602Z,2.70
2019-02-11T21:03:08.168Z,2.70
2019-02-11T21:05:36.191Z,2.70
2019-02-11T21:08:09.876Z,2.70
2019-02-11T21:10:54.947Z,2.70
2019-02-11T21:13:28.548Z,2.70
2019-02-11T21:16:02.225Z,2.70
2019-02-11T21:18:44.940Z,2.60
2019-02-11T21:21:19.635Z,2.60
2019-02-11T21:23:53.218Z,2.60
2019-02-11T21:26:33.359Z,2.70
2019-02-11T21:29:06.973Z,2.70
2019-02-11T21:31:41.553Z,2.60
2019-02-11T21:34:15.254Z,2.60
2019-02-11T21:36:48.840Z,2.60
2019-02-11T21:39:25.500Z,2.50
2019-02-11T21:41:59.231Z,2.50
2019-02-11T21:44:33.783Z,2.50
2019-02-11T21:47:07.414Z,2.60
2019-02-11T21:49:41.086Z,2.60
2019-02-11T21:52:14.785Z,2.60
2019-02-11T21:54:48.441Z,2.70
2019-02-11T21:57:31.310Z,2.70
2019-02-11T22:00:07.900Z,2.70
2019-02-11T22:02:41.521Z,2.70
2019-02-11T22:05:16.095Z,2.80
2019-02-11T22:07:49.755Z,2.80
2019-02-11T22:10:23.968Z,2.80
2019-02-11T22:12:57.591Z,2.80
2019-02-11T22:15:31.241Z,2.90
2019-02-11T22:18:04.937Z,2.90
2019-02-11T22:20:38.548Z,2.90
2019-02-11T22:23:12.222Z,2.90
2019-02-11T22:26:01.005Z,2.90
2019-02-11T22:28:34.735Z,2.80
2019-02-11T22:31:08.346Z,2.80
2019-02-11T22:33:45.194Z,2.80
2019-02-11T22:36:18.800Z,2.70
2019-02-11T22:38:52.387Z,2.80
2019-02-11T22:41:26.033Z,2.80
2019-02-11T22:43:59.647Z,2.80
2019-02-11T22:46:36.568Z,2.80
2019-02-11T22:49:10.185Z,2.80
2019-02-11T22:51:43.868Z,2.80
2019-02-11T22:54:26.730Z,2.80
2019-02-11T22:57:12.361Z,2.80
2019-02-11T22:59:46.030Z,2.80
2019-02-11T23:02:19.755Z,2.70
2019-02-11T23:04:59.442Z,2.70
2019-02-11T23:08:00.767Z,2.70
2019-02-11T23:10:34.462Z,2.70
2019-02-11T23:13:08.190Z,2.70
2019-02-11T23:15:41.872Z,2.80
2019-02-11T23:18:15.532Z,2.80
2019-02-11T23:20:58.554Z,2.80
2019-02-11T23:23:32.162Z,2.80
2019-02-11T23:26:05.806Z,2.80
2019-02-11T23:31:19.333Z,2.70
2019-02-11T23:33:53.027Z,2.70
2019-02-11T23:36:26.610Z,2.70
2019-02-11T23:39:08.106Z,2.70
2019-02-11T23:41:53.496Z,2.70
2019-02-11T23:44:27.112Z,2.70
2019-02-11T23:47:00.729Z,2.60
2019-02-11T23:49:34.401Z,2.60
2019-02-11T23:52:08.101Z,2.60
2019-02-11T23:54:54.343Z,2.60
2019-02-11T23:57:28.255Z,2.50
